Time;durP1;ratioP1;P1;durP2;ratioP2;P2;SDS_P1;SDS_P2;PMS_P1;PMS_P2;Temp;Humidity;BMP_temperature;BMP_pressure;BME280_temperature;BME280_humidity;BME280_pressure;Samples;Min_cycle;Max_cycle;Signal;HPM_P1;HPM_P2
2021/04/27 00:01:55;;;;;;;8.95;4.20;;;1.00;99.90;;;;;;3570166;40;20041;-68
2021/04/27 00:04:20;;;;;;;8.35;4.00;;;0.90;99.90;;;;;;3569512;40;20037;-68
2021/04/27 00:06:47;;;;;;;11.20;4.15;;;0.90;99.90;;;;;;3569001;40;20036;-68
2021/04/27 00:09:13;;;;;;;16.42;7.55;;;0.80;99.90;;;;;;3569525;40;20132;-69
2021/04/27 00:11:39;;;;;;;12.68;6.63;;;0.80;99.90;;;;;;3575702;40;20343;-68
2021/04/27 00:14:07;;;;;;;14.45;7.80;;;0.70;99.90;;;;;;3572007;40;20056;-68
2021/04/27 00:16:33;;;;;;;7.93;3.47;;;0.70;99.90;;;;;;3572219;40;20043;-68
2021/04/27 00:19:00;;;;;;;5.18;2.38;;;0.70;99.90;;;;;;3573167;40;20053;-68
2021/04/27 00:21:26;;;;;;;4.22;2.05;;;0.70;99.90;;;;;;3573162;40;20080;-68
2021/04/27 00:23:52;;;;;;;4.07;1.90;;;0.80;99.90;;;;;;3574286;40;20029;-68
2021/04/27 00:26:18;;;;;;;5.13;2.40;;;0.90;99.90;;;;;;3575515;40;20122;-68
2021/04/27 00:28:43;;;;;;;6.63;2.60;;;0.80;99.90;;;;;;3576285;40;20049;-68
2021/04/27 00:31:09;;;;;;;4.63;2.45;;;0.80;99.90;;;;;;3576190;40;20504;-67
2021/04/27 00:33:35;;;;;;;5.82;2.60;;;0.80;99.90;;;;;;3577281;40;20033;-68
2021/04/27 00:36:01;;;;;;;5.15;2.80;;;0.80;99.90;;;;;;3570698;40;20044;-68
2021/04/27 00:38:27;;;;;;;6.68;2.50;;;0.80;99.90;;;;;;3568845;40;20109;-68
2021/04/27 00:40:53;;;;;;;9.68;3.92;;;0.80;99.90;;;;;;3569304;40;20130;-68
2021/04/27 00:43:18;;;;;;;9.85;4.05;;;0.70;99.90;;;;;;3570623;40;20052;-68
2021/04/27 00:45:44;;;;;;;9.02;3.58;;;0.70;99.90;;;;;;3571787;40;20055;-68
2021/04/27 00:48:10;;;;;;;10.77;4.28;;;0.60;99.90;;;;;;3574396;40;20115;-68
2021/04/27 00:50:39;;;;;;;10.07;3.50;;;0.60;99.90;;;;;;3573364;40;20055;-68
2021/04/27 00:53:06;;;;;;;12.73;4.57;;;0.50;99.90;;;;;;3572834;40;20139;-68
2021/04/27 00:55:34;;;;;;;9.52;3.80;;;0.40;99.90;;;;;;3572173;40;20036;-68
2021/04/27 00:58:00;;;;;;;10.95;3.75;;;0.40;99.90;;;;;;3577105;40;20512;-68
2021/04/27 01:00:33;;;;;;;10.13;3.72;;;0.40;99.90;;;;;;3577864;40;20711;-68
2021/04/27 01:02:59;;;;;;;7.32;2.92;;;0.30;99.90;;;;;;3579399;40;20050;-68
2021/04/27 01:05:27;;;;;;;9.63;3.80;;;0.30;99.90;;;;;;3580776;40;20049;-68
2021/04/27 01:08:13;;;;;;;9.23;4.03;;;0.30;99.90;;;;;;3579764;40;20587;-68
2021/04/27 01:11:04;;;;;;;10.43;4.28;;;0.30;99.90;;;;;;3574749;40;20142;-68
2021/04/27 01:13:45;;;;;;;9.05;3.70;;;0.20;99.90;;;;;;3577437;40;20497;-68
2021/04/27 01:16:12;;;;;;;9.02;4.00;;;0.10;99.90;;;;;;3572038;40;20334;-68
2021/04/27 01:18:43;;;;;;;8.15;4.15;;;0.10;99.90;;;;;;3573095;40;20044;-68
2021/04/27 01:21:13;;;;;;;8.63;3.28;;;0.00;99.90;;;;;;3579016;40;20041;-68
2021/04/27 01:24:01;;;;;;;6.35;3.00;;;-0.10;99.90;;;;;;3573101;40;20126;-68
2021/04/27 01:26:37;;;;;;;7.03;2.78;;;-0.10;99.90;;;;;;3575279;40;20041;-68
2021/04/27 01:29:08;;;;;;;5.55;2.70;;;-0.10;99.90;;;;;;3569985;40;20437;-68
2021/04/27 01:31:35;;;;;;;6.20;2.45;;;-0.20;99.90;;;;;;3568935;40;20049;-68
2021/04/27 01:34:03;;;;;;;10.48;2.88;;;-0.20;99.90;;;;;;3578490;40;20046;-68
2021/04/27 01:36:30;;;;;;;6.30;2.75;;;-0.20;99.90;;;;;;3574084;40;20113;-68
2021/04/27 01:38:57;;;;;;;6.10;2.88;;;-0.20;99.90;;;;;;3570750;40;20049;-68
2021/04/27 01:41:23;;;;;;;5.72;2.38;;;-0.30;99.90;;;;;;3571648;40;20037;-68
2021/04/27 01:43:49;;;;;;;13.90;3.08;;;-0.30;99.90;;;;;;3572141;40;20036;-68
2021/04/27 01:46:16;;;;;;;7.70;2.83;;;-0.30;99.90;;;;;;3573258;40;20041;-68
2021/04/27 01:48:42;;;;;;;7.97;2.85;;;-0.30;99.90;;;;;;3574213;40;20036;-68
2021/04/27 01:51:11;;;;;;;7.28;2.55;;;-0.40;99.90;;;;;;3572918;40;20041;-67
2021/04/27 01:53:55;;;;;;;;;;;-0.40;99.90;;;;;;3575672;40;20681;-68
2021/04/27 01:56:25;;;;;;;5.82;2.28;;;-0.40;99.90;;;;;;3569876;40;20014;-67
2021/04/27 01:58:50;;;;;;;4.88;2.55;;;-0.50;99.90;;;;;;3570356;40;20109;-68
2021/04/27 02:01:20;;;;;;;6.65;3.00;;;-0.60;99.90;;;;;;3576976;40;20032;-68
2021/04/27 02:03:48;;;;;;;8.80;3.22;;;-0.60;99.90;;;;;;3578288;40;20726;-68
2021/04/27 02:06:34;;;;;;;9.27;3.83;;;-0.60;99.90;;;;;;3573338;40;20044;-67
2021/04/27 02:09:11;;;;;;;11.23;4.75;;;-0.60;99.90;;;;;;3576399;40;20052;-67
2021/04/27 02:11:40;;;;;;;8.48;3.13;;;-0.60;99.90;;;;;;3575265;40;20039;-67
2021/04/27 02:14:08;;;;;;;8.40;3.85;;;-0.60;99.90;;;;;;3575883;40;20922;-68
2021/04/27 02:17:01;;;;;;;13.15;4.75;;;-0.70;99.90;;;;;;3572226;40;20075;-68
2021/04/27 02:19:29;;;;;;;7.53;3.63;;;-0.70;99.90;;;;;;3573938;40;20036;-68
2021/04/27 02:22:29;;;;;;;11.90;4.10;;;-0.70;99.90;;;;;;3571527;40;20110;-68
2021/04/27 02:25:16;;;;;;;11.93;5.00;;;-0.70;99.90;;;;;;3570614;40;20056;-68
2021/04/27 02:27:43;;;;;;;10.20;4.80;;;-0.70;99.90;;;;;;3575744;40;20095;-67
2021/04/27 02:30:13;;;;;;;12.35;5.00;;;-0.70;99.90;;;;;;3576739;40;20041;-68
2021/04/27 02:32:41;;;;;;;10.52;5.45;;;-0.70;99.90;;;;;;3577194;40;20040;-68
2021/04/27 02:35:10;;;;;;;16.98;6.95;;;-0.70;99.90;;;;;;3576245;40;20054;-68
2021/04/27 02:37:37;;;;;;;11.85;5.70;;;-0.70;99.90;;;;;;3576539;40;20864;-68
2021/04/27 02:40:13;;;;;;;11.43;5.43;;;-0.70;99.90;;;;;;3576260;40;20329;-67
2021/04/27 02:42:39;;;;;;;9.63;4.65;;;-0.70;99.90;;;;;;3574637;40;20095;-68
2021/04/27 02:45:31;;;;;;;8.63;4.00;;;-0.70;99.90;;;;;;3575772;40;20067;-68
2021/04/27 02:48:19;;;;;;;7.45;3.40;;;-0.70;99.90;;;;;;3572284;40;20711;-68
2021/04/27 02:50:50;;;;;;;6.43;4.15;;;-0.70;99.90;;;;;;3574878;40;20040;-68
2021/04/27 02:53:17;;;;;;;8.65;4.30;;;-0.80;99.90;;;;;;3573905;40;20070;-68
2021/04/27 02:55:43;;;;;;;7.45;3.45;;;-0.80;99.90;;;;;;3578504;40;20055;-68
2021/04/27 02:58:10;;;;;;;7.90;4.00;;;-0.80;99.90;;;;;;3576642;40;20081;-68
2021/04/27 03:00:39;;;;;;;6.13;3.45;;;-0.80;99.90;;;;;;3576588;40;20494;-68
2021/04/27 03:03:08;;;;;;;7.93;3.75;;;-0.80;99.90;;;;;;3575159;40;20311;-68
2021/04/27 03:05:34;;;;;;;9.38;4.03;;;-0.80;99.90;;;;;;3577155;39;20041;-67
2021/04/27 03:08:00;;;;;;;7.00;3.60;;;-0.80;99.90;;;;;;3580660;40;20068;-68
2021/04/27 03:10:26;;;;;;;6.72;3.25;;;-0.90;99.90;;;;;;3575782;40;20044;-68
2021/04/27 03:12:53;;;;;;;8.82;3.97;;;-0.90;99.90;;;;;;3577764;40;20445;-68
2021/04/27 03:15:19;;;;;;;9.80;4.55;;;-0.90;99.90;;;;;;3583325;39;20649;-68
2021/04/27 03:17:45;;;;;;;8.38;4.68;;;-0.90;99.90;;;;;;3574220;40;20033;-68
2021/04/27 03:20:13;;;;;;;8.88;4.65;;;-0.90;99.90;;;;;;3576467;40;20425;-68
2021/04/27 03:22:47;;;;;;;8.55;4.90;;;-0.90;99.90;;;;;;3575605;40;20049;-68
2021/04/27 03:25:14;;;;;;;7.22;4.03;;;-0.80;99.90;;;;;;3578027;40;20040;-68
2021/04/27 03:27:45;;;;;;;7.95;4.78;;;-0.80;99.90;;;;;;3575931;40;20488;-68
2021/04/27 03:30:18;;;;;;;12.13;4.72;;;-0.80;99.90;;;;;;3576635;40;20029;-68
2021/04/27 03:32:48;;;;;;;9.70;3.88;;;-0.80;99.90;;;;;;3574691;40;20381;-68
2021/04/27 03:35:14;;;;;;;9.32;4.68;;;-0.80;99.90;;;;;;3575424;40;20033;-68
2021/04/27 03:37:41;;;;;;;6.55;3.00;;;-0.70;99.90;;;;;;3573593;40;20138;-68
2021/04/27 03:40:10;;;;;;;9.68;3.20;;;-0.70;99.90;;;;;;3573041;40;20032;-68
2021/04/27 03:42:37;;;;;;;6.65;3.60;;;-0.60;99.90;;;;;;3576961;40;20037;-68
2021/04/27 03:45:08;;;;;;;9.05;3.38;;;-0.60;99.90;;;;;;3575956;40;20827;-68
2021/04/27 03:47:34;;;;;;;14.57;3.22;;;-0.60;99.90;;;;;;3576418;40;20306;-68
2021/04/27 03:50:01;;;;;;;9.65;3.50;;;-0.60;99.90;;;;;;3577825;40;20499;-68
2021/04/27 03:52:30;;;;;;;6.05;3.10;;;-0.60;99.90;;;;;;3576792;40;20044;-68
2021/04/27 03:54:56;;;;;;;5.13;2.90;;;-0.50;99.90;;;;;;3576318;40;20342;-68
2021/04/27 03:57:21;;;;;;;7.90;2.90;;;-0.50;99.90;;;;;;3575412;40;20041;-67
2021/04/27 03:59:56;;;;;;;6.55;2.95;;;-0.50;99.90;;;;;;3574774;40;20045;-68
2021/04/27 04:02:22;;;;;;;5.40;2.70;;;-0.50;99.90;;;;;;3574749;40;20076;-68
2021/04/27 04:04:48;;;;;;;5.80;2.72;;;-0.50;99.90;;;;;;3575354;40;20876;-68
2021/04/27 04:07:17;;;;;;;7.00;2.92;;;-0.50;99.90;;;;;;3575310;40;20487;-68
2021/04/27 04:10:12;;;;;;;6.00;3.00;;;-0.40;99.90;;;;;;3573434;40;20041;-68
2021/04/27 04:12:39;;;;;;;3.47;2.47;;;-0.40;99.90;;;;;;3576157;40;20044;-68
2021/04/27 04:15:08;;;;;;;9.75;4.45;;;-0.40;99.90;;;;;;3575644;40;20040;-68
2021/04/27 04:17:38;;;;;;;8.23;3.40;;;-0.30;99.90;;;;;;3573335;40;20706;-68
2021/04/27 04:20:10;;;;;;;6.30;2.90;;;-0.30;99.90;;;;;;3575036;40;20053;-68
2021/04/27 04:22:39;;;;;;;7.97;4.57;;;-0.40;99.90;;;;;;3578041;40;20473;-68
2021/04/27 04:25:11;;;;;;;5.93;2.92;;;-0.40;99.90;;;;;;3576820;40;20155;-68
2021/04/27 04:27:37;;;;;;;9.75;3.45;;;-0.40;99.90;;;;;;3581546;40;20036;-68
2021/04/27 04:30:08;;;;;;;6.25;2.72;;;-0.40;99.90;;;;;;3576635;40;20037;-68
2021/04/27 04:32:54;;;;;;;6.57;2.67;;;-0.40;99.90;;;;;;3568248;40;20051;-68
2021/04/27 04:35:39;;;;;;;9.13;3.42;;;-0.40;99.90;;;;;;3576492;40;20467;-68
2021/04/27 04:38:23;;;;;;;6.90;4.05;;;-0.40;99.90;;;;;;3579685;40;20445;-68
2021/04/27 04:41:09;;;;;;;8.47;2.73;;;-0.50;99.90;;;;;;3574449;40;20661;-68
2021/04/27 04:43:53;;;;;;;;;;;-0.50;99.90;;;;;;3576686;40;20070;-68
2021/04/27 04:46:25;;;;;;;7.07;3.22;;;-0.40;99.90;;;;;;3574908;39;20035;-68
2021/04/27 04:49:10;;;;;;;10.30;3.50;;;-0.40;99.90;;;;;;3572611;40;20042;-68
2021/04/27 04:51:55;;;;;;;8.35;4.25;;;-0.30;99.90;;;;;;3576083;40;20044;-66
2021/04/27 04:54:49;;;;;;;11.30;4.90;;;-0.30;99.90;;;;;;3566396;40;20049;-68
2021/04/27 04:57:36;;;;;;;13.57;6.25;;;-0.20;99.90;;;;;;3576261;40;20873;-68
2021/04/27 05:00:08;;;;;;;11.48;4.72;;;-0.10;99.90;;;;;;3572716;40;20045;-68
2021/04/27 05:02:54;;;;;;;12.73;6.00;;;0.00;99.90;;;;;;3571136;40;20053;-68
2021/04/27 05:05:39;;;;;;;23.02;7.97;;;0.20;99.90;;;;;;3578255;40;20578;-68
2021/04/27 05:08:26;;;;;;;29.83;10.75;;;0.30;99.90;;;;;;3577090;40;20122;-68
2021/04/27 05:11:12;;;;;;;27.48;10.05;;;0.50;99.90;;;;;;3574212;40;20115;-68
2021/04/27 05:13:48;;;;;;;17.88;7.20;;;0.80;99.90;;;;;;3576670;40;20122;-68
2021/04/27 05:16:14;;;;;;;13.43;4.10;;;1.00;99.90;;;;;;3577781;40;20049;-68
2021/04/27 05:18:40;;;;;;;9.20;3.10;;;1.10;99.90;;;;;;3577168;40;20036;-68
2021/04/27 05:21:06;;;;;;;9.07;3.60;;;1.20;99.90;;;;;;3574995;40;20528;-69
2021/04/27 05:23:32;;;;;;;8.35;3.60;;;1.20;99.90;;;;;;3578416;40;20041;-69
2021/04/27 05:25:58;;;;;;;10.45;3.20;;;1.30;99.90;;;;;;3578510;40;20043;-69
2021/04/27 05:28:25;;;;;;;7.45;3.40;;;1.50;99.90;;;;;;3577280;40;20022;-70
2021/04/27 05:30:50;;;;;;;6.72;3.22;;;1.60;99.90;;;;;;3575070;40;20088;-69
2021/04/27 05:33:16;;;;;;;10.38;3.53;;;1.90;99.90;;;;;;3577070;40;20045;-70
2021/04/27 05:35:42;;;;;;;8.70;3.75;;;2.10;99.90;;;;;;3576166;40;20487;-70
2021/04/27 05:38:09;;;;;;;10.73;3.95;;;2.20;99.90;;;;;;3577589;40;20822;-70
2021/04/27 05:40:36;;;;;;;7.50;3.67;;;2.40;99.90;;;;;;3575946;40;20116;-70
2021/04/27 05:43:03;;;;;;;8.65;3.20;;;2.50;99.90;;;;;;3576734;40;20529;-70
2021/04/27 05:45:29;;;;;;;6.65;3.08;;;2.70;99.90;;;;;;3577398;40;20044;-70
2021/04/27 05:47:55;;;;;;;7.50;3.05;;;2.90;99.90;;;;;;3575942;40;20452;-70
2021/04/27 05:50:21;;;;;;;9.45;3.45;;;3.00;99.90;;;;;;3576725;40;20173;-59
2021/04/27 05:52:46;;;;;;;8.45;3.10;;;3.20;99.90;;;;;;3570459;40;20066;-59
2021/04/27 05:55:12;;;;;;;5.90;3.17;;;3.30;99.90;;;;;;3576898;40;20728;-61
2021/04/27 05:57:38;;;;;;;10.57;3.08;;;3.40;99.90;;;;;;3575901;40;20064;-60
2021/04/27 06:00:06;;;;;;;10.43;2.95;;;3.60;99.90;;;;;;3578429;40;20028;-61
2021/04/27 06:02:39;;;;;;;7.47;2.67;;;3.70;99.80;;;;;;3578563;40;20045;-60
2021/04/27 06:05:05;;;;;;;7.35;2.78;;;3.80;99.40;;;;;;3574232;39;20056;-60
2021/04/27 06:07:30;;;;;;;7.32;3.00;;;3.90;99.20;;;;;;3577682;40;20689;-60
2021/04/27 06:09:56;;;;;;;9.18;3.17;;;4.10;99.20;;;;;;3578048;40;20096;-60
2021/04/27 06:12:22;;;;;;;7.55;2.92;;;4.30;99.10;;;;;;3573773;40;20040;-60
2021/04/27 06:14:47;;;;;;;12.85;3.72;;;4.50;98.70;;;;;;3576744;40;20122;-62
2021/04/27 06:17:13;;;;;;;5.57;2.42;;;4.60;98.30;;;;;;3578606;40;20088;-60
2021/04/27 06:19:39;;;;;;;6.28;2.38;;;4.70;98.00;;;;;;3572785;40;20131;-60
2021/04/27 06:22:05;;;;;;;5.47;2.30;;;4.80;97.40;;;;;;3575616;40;20036;-60
2021/04/27 06:24:30;;;;;;;3.58;1.83;;;5.00;97.20;;;;;;3577511;40;20024;-60
2021/04/27 06:26:56;;;;;;;6.07;3.15;;;5.10;96.30;;;;;;3578934;40;20060;-60
2021/04/27 06:29:22;;;;;;;5.50;2.65;;;5.20;95.50;;;;;;3580653;40;20645;-60
2021/04/27 06:31:48;;;;;;;4.90;2.15;;;5.20;95.90;;;;;;3578981;40;20040;-60
2021/04/27 06:34:13;;;;;;;9.68;4.50;;;5.30;94.80;;;;;;3570856;40;20142;-59
2021/04/27 06:36:39;;;;;;;5.28;2.35;;;5.40;95.60;;;;;;3574330;40;20529;-60
2021/04/27 06:39:06;;;;;;;5.55;2.13;;;5.50;94.60;;;;;;3575804;40;20060;-62
2021/04/27 06:41:33;;;;;;;5.82;2.42;;;5.70;94.30;;;;;;3574019;40;20044;-61
2021/04/27 06:44:00;;;;;;;3.80;2.15;;;5.80;94.50;;;;;;3576252;40;20080;-62
2021/04/27 06:46:26;;;;;;;5.57;2.08;;;5.90;92.80;;;;;;3577795;40;20033;-61
2021/04/27 06:48:52;;;;;;;3.17;1.90;;;5.90;93.70;;;;;;3577919;40;20052;-61
2021/04/27 06:51:19;;;;;;;5.72;2.20;;;6.00;92.50;;;;;;3576380;40;20329;-63
2021/04/27 06:53:45;;;;;;;4.65;2.13;;;6.00;92.00;;;;;;3580372;39;20037;-60
2021/04/27 06:56:12;;;;;;;7.40;2.25;;;6.00;92.50;;;;;;3578192;40;20740;-60
2021/04/27 06:58:38;;;;;;;4.13;1.80;;;6.10;92.80;;;;;;3576997;40;20045;-59
2021/04/27 07:01:05;;;;;;;6.03;2.13;;;6.20;92.80;;;;;;3572429;40;20069;-60
2021/04/27 07:03:34;;;;;;;5.35;2.00;;;6.40;91.80;;;;;;3578188;40;20040;-60
2021/04/27 07:06:00;;;;;;;4.72;2.03;;;6.40;90.80;;;;;;3577592;40;20036;-59
2021/04/27 07:08:26;;;;;;;5.03;1.85;;;6.50;91.30;;;;;;3575970;40;20857;-60
2021/04/27 07:10:53;;;;;;;3.45;1.77;;;6.60;89.80;;;;;;3577174;40;20032;-59
2021/04/27 07:13:26;;;;;;;4.40;2.03;;;6.80;90.00;;;;;;3580975;40;20373;-60
2021/04/27 07:15:52;;;;;;;3.95;1.73;;;6.90;87.20;;;;;;3581039;40;20055;-60
2021/04/27 07:18:18;;;;;;;4.60;2.00;;;6.90;85.70;;;;;;3575559;40;20040;-59
2021/04/27 07:20:44;;;;;;;4.25;2.25;;;6.90;87.60;;;;;;3569184;40;20310;-60
2021/04/27 07:23:10;;;;;;;3.67;1.92;;;7.10;87.10;;;;;;3580738;40;20142;-60
2021/04/27 07:25:36;;;;;;;5.95;2.28;;;7.20;83.70;;;;;;3578605;40;20033;-60
2021/04/27 07:28:04;;;;;;;6.22;2.00;;;7.20;81.80;;;;;;3570309;40;20037;-60
2021/04/27 07:30:34;;;;;;;5.15;1.90;;;7.20;80.60;;;;;;3579273;40;20040;-59
2021/04/27 07:33:00;;;;;;;6.63;1.85;;;7.30;83.80;;;;;;3572685;40;20044;-59
2021/04/27 07:35:26;;;;;;;3.42;1.80;;;7.50;83.40;;;;;;3576034;40;20512;-60
2021/04/27 07:37:53;;;;;;;6.90;2.30;;;7.60;79.20;;;;;;3574263;40;20081;-60
2021/04/27 07:40:19;;;;;;;8.00;2.25;;;7.60;78.80;;;;;;3575044;40;20425;-60
2021/04/27 07:42:45;;;;;;;4.07;2.28;;;7.90;77.40;;;;;;3574052;40;20738;-60
2021/04/27 07:45:14;;;;;;;5.35;1.67;;;8.00;74.20;;;;;;3572170;40;20031;-60
2021/04/27 07:47:39;;;;;;;2.80;1.75;;;8.20;74.00;;;;;;3576768;40;20502;-59
2021/04/27 07:50:07;;;;;;;6.00;2.10;;;8.10;72.50;;;;;;3574480;40;20041;-61
2021/04/27 07:52:33;;;;;;;8.07;2.28;;;8.30;72.30;;;;;;3573560;40;20104;-60
2021/04/27 07:55:00;;;;;;;3.05;1.50;;;8.50;71.40;;;;;;3572592;40;20037;-59
2021/04/27 07:57:26;;;;;;;5.15;1.60;;;8.80;71.70;;;;;;3572944;40;20032;-59
2021/04/27 07:59:52;;;;;;;4.68;1.60;;;9.00;67.00;;;;;;3569497;40;20040;-60
2021/04/27 08:02:18;;;;;;;4.60;2.05;;;8.90;64.70;;;;;;3575082;40;20033;-60
2021/04/27 08:04:45;;;;;;;3.97;1.80;;;8.90;65.50;;;;;;3579209;40;20113;-61
2021/04/27 08:07:12;;;;;;;10.43;1.63;;;9.00;66.00;;;;;;3576730;39;20053;-61
2021/04/27 08:09:38;;;;;;;6.47;1.65;;;9.20;63.30;;;;;;3579787;40;20429;-62
2021/04/27 08:12:05;;;;;;;5.68;1.60;;;9.40;64.80;;;;;;3575668;40;20048;-61
2021/04/27 08:14:30;;;;;;;2.90;1.58;;;9.60;61.50;;;;;;3576899;40;20048;-62
2021/04/27 08:16:56;;;;;;;3.33;1.58;;;10.10;60.50;;;;;;3571246;40;20041;-62
2021/04/27 08:19:22;;;;;;;2.90;1.30;;;10.10;60.00;;;;;;3573152;40;20032;-62
2021/04/27 08:21:48;;;;;;;2.05;1.33;;;9.60;59.40;;;;;;3580014;40;20141;-62
2021/04/27 08:24:14;;;;;;;6.40;1.98;;;9.90;61.10;;;;;;3578548;40;20416;-62
2021/04/27 08:26:40;;;;;;;2.65;1.60;;;10.30;60.60;;;;;;3572847;40;20040;-62
2021/04/27 08:29:05;;;;;;;8.93;1.60;;;10.50;57.30;;;;;;3573854;40;20032;-62
2021/04/27 08:31:32;;;;;;;2.83;1.65;;;10.80;56.80;;;;;;3578753;40;20044;-62
2021/04/27 08:33:58;;;;;;;2.65;1.52;;;10.70;56.10;;;;;;3572382;40;20040;-61
2021/04/27 08:36:23;;;;;;;5.32;1.35;;;10.50;55.90;;;;;;3572505;40;20149;-61
2021/04/27 08:38:49;;;;;;;3.55;1.67;;;10.90;55.70;;;;;;3579352;40;20409;-61
2021/04/27 08:41:15;;;;;;;2.97;1.40;;;11.20;55.10;;;;;;3578164;40;20498;-61
2021/04/27 08:43:41;;;;;;;4.10;1.35;;;11.20;53.20;;;;;;3575964;40;20032;-61
2021/04/27 08:46:07;;;;;;;2.80;1.60;;;11.50;54.80;;;;;;3576560;40;20048;-61
2021/04/27 08:48:33;;;;;;;3.00;1.60;;;11.90;55.20;;;;;;3576619;40;20052;-61
2021/04/27 08:50:59;;;;;;;3.47;1.45;;;12.00;52.60;;;;;;3577490;40;20134;-61
2021/04/27 08:53:25;;;;;;;2.95;1.30;;;11.80;52.40;;;;;;3578147;40;20036;-62
2021/04/27 08:55:51;;;;;;;9.07;1.50;;;11.80;50.00;;;;;;3577934;40;20033;-61
2021/04/27 08:58:17;;;;;;;2.40;1.30;;;11.80;52.00;;;;;;3577583;40;20039;-61
2021/04/27 09:00:45;;;;;;;3.67;1.25;;;12.00;51.00;;;;;;3576639;40;20036;-61
2021/04/27 09:03:11;;;;;;;2.13;1.17;;;11.60;49.00;;;;;;3580585;40;20048;-61
2021/04/27 09:05:40;;;;;;;2.85;1.23;;;11.60;50.70;;;;;;3574896;40;20058;-61
2021/04/27 09:08:06;;;;;;;4.03;1.67;;;11.60;50.40;;;;;;3577046;40;20541;-61
2021/04/27 09:10:45;;;;;;;3.05;1.42;;;12.00;51.30;;;;;;3575505;40;20043;-61
2021/04/27 09:13:13;;;;;;;4.18;1.45;;;12.10;49.40;;;;;;3571908;40;20044;-62
2021/04/27 09:15:47;;;;;;;4.25;1.27;;;12.50;48.00;;;;;;3573738;40;20052;-61
2021/04/27 09:18:24;;;;;;;3.63;1.30;;;12.50;47.90;;;;;;3578632;40;20048;-62
2021/04/27 09:20:53;;;;;;;3.58;1.20;;;12.40;48.00;;;;;;3576583;40;20122;-61
2021/04/27 09:23:20;;;;;;;1.90;1.23;;;12.40;48.50;;;;;;3577168;40;20041;-62
2021/04/27 09:26:11;;;;;;;13.05;1.30;;;12.70;49.30;;;;;;3577459;40;20036;-61
2021/04/27 09:28:48;;;;;;;4.43;1.30;;;13.00;46.40;;;;;;3573146;40;20032;-62
2021/04/27 09:31:32;;;;;;;1.75;1.00;;;13.30;46.60;;;;;;3579397;40;20047;-61
2021/04/27 09:34:29;;;;;;;4.88;2.20;;;13.10;46.70;;;;;;3575502;40;20067;-61
2021/04/27 09:37:07;;;;;;;3.80;1.10;;;12.60;47.90;;;;;;3570467;40;20126;-61
2021/04/27 09:39:39;;;;;;;3.90;1.17;;;12.20;46.90;;;;;;3572958;40;20091;-62
2021/04/27 09:42:13;;;;;;;4.75;1.20;;;12.60;45.30;;;;;;3580089;40;20045;-62
2021/04/27 09:44:49;;;;;;;2.15;1.10;;;12.20;45.60;;;;;;3576323;40;20035;-62
2021/04/27 09:47:18;;;;;;;2.33;1.15;;;11.70;46.70;;;;;;3577170;40;20047;-62
2021/04/27 09:49:55;;;;;;;5.68;1.10;;;11.90;46.80;;;;;;3576558;40;20044;-62
2021/04/27 09:52:21;;;;;;;2.28;1.10;;;12.50;47.90;;;;;;3576740;40;20033;-64
2021/04/27 09:54:59;;;;;;;2.47;1.13;;;12.70;46.80;;;;;;3577399;40;20037;-63
2021/04/27 09:57:27;;;;;;;3.03;1.35;;;13.20;47.00;;;;;;3575758;40;20102;-64
2021/04/27 09:59:53;;;;;;;4.60;1.30;;;13.70;44.70;;;;;;3574279;39;20040;-64
2021/04/27 10:02:21;;;;;;;1.60;1.10;;;13.40;43.70;;;;;;3575944;40;20506;-63
2021/04/27 10:04:48;;;;;;;2.80;1.15;;;13.10;44.40;;;;;;3575433;40;20045;-64
2021/04/27 10:07:17;;;;;;;4.53;1.30;;;12.80;43.50;;;;;;3573572;40;20044;-64
2021/04/27 10:09:46;;;;;;;4.07;1.55;;;13.20;45.90;;;;;;3574990;40;20069;-64
2021/04/27 10:12:14;;;;;;;2.63;1.30;;;13.50;43.50;;;;;;3578053;40;20040;-66
2021/04/27 10:14:40;;;;;;;5.97;1.38;;;13.10;43.50;;;;;;3574955;40;20679;-64
2021/04/27 10:17:07;;;;;;;3.15;1.05;;;13.30;44.50;;;;;;3577947;40;20168;-63
2021/04/27 10:19:34;;;;;;;3.28;1.25;;;13.80;43.50;;;;;;3576114;40;20076;-64
2021/04/27 10:21:59;;;;;;;3.17;1.35;;;13.80;42.40;;;;;;3577177;40;20730;-64
2021/04/27 10:24:26;;;;;;;2.42;1.10;;;13.80;42.90;;;;;;3569718;40;20021;-64
2021/04/27 10:26:52;;;;;;;1.92;1.13;;;13.90;43.50;;;;;;3575203;39;20057;-64
2021/04/27 10:29:22;;;;;;;4.05;1.13;;;14.00;41.60;;;;;;3571104;40;20142;-63
2021/04/27 10:32:15;;;;;;;2.33;1.30;;;14.10;42.00;;;;;;3578145;40;20849;-62
2021/04/27 10:35:05;;;;;;;3.72;1.10;;;14.20;41.20;;;;;;3581269;39;20040;-62
2021/04/27 10:38:05;;;;;;;9.48;3.58;;;13.90;42.20;;;;;;3573073;40;20075;-62
2021/04/27 10:40:58;;;;;;;4.00;1.35;;;13.50;43.70;;;;;;3578045;40;20055;-64
2021/04/27 10:43:24;;;;;;;8.55;1.67;;;13.60;44.30;;;;;;3576349;40;20098;-64
2021/04/27 10:45:51;;;;;;;1.80;1.20;;;13.50;42.30;;;;;;3578888;39;20644;-64
2021/04/27 10:48:45;;;;;;;3.47;1.42;;;13.60;41.80;;;;;;3577232;40;20386;-64
2021/04/27 10:51:19;;;;;;;4.05;1.50;;;14.00;41.30;;;;;;3576167;40;20036;-63
2021/04/27 10:54:04;;;;;;;4.78;1.30;;;14.20;41.30;;;;;;3576510;39;20043;-64
2021/04/27 10:57:04;;;;;;;2.88;1.50;;;13.70;43.30;;;;;;3573516;40;20052;-63
2021/04/27 10:59:55;;;;;;;5.38;1.05;;;13.70;42.90;;;;;;3566102;40;20048;-63
2021/04/27 11:02:25;;;;;;;4.63;1.40;;;14.00;42.10;;;;;;3574497;40;20691;-63
2021/04/27 11:04:53;;;;;;;9.00;1.55;;;14.10;42.90;;;;;;3576645;40;20134;-63
2021/04/27 11:07:19;;;;;;;7.70;2.22;;;14.00;41.80;;;;;;3573014;40;20039;-63
2021/04/27 11:10:05;;;;;;;2.67;1.17;;;14.30;42.70;;;;;;3572550;40;20068;-63
2021/04/27 11:12:34;;;;;;;1.77;1.23;;;14.20;41.00;;;;;;3573864;40;20040;-64
2021/04/27 11:15:03;;;;;;;1.83;1.38;;;14.40;40.50;;;;;;3575105;40;20035;-64
2021/04/27 11:17:34;;;;;;;4.20;1.40;;;14.20;40.90;;;;;;3578621;40;20860;-63
2021/04/27 11:20:04;;;;;;;3.85;1.45;;;14.60;43.60;;;;;;3571452;40;20080;-64
2021/04/27 11:22:33;;;;;;;3.15;1.10;;;15.40;41.30;;;;;;3568078;40;20134;-64
2021/04/27 11:25:01;;;;;;;2.85;1.40;;;15.50;39.70;;;;;;3576292;40;20068;-63
2021/04/27 11:27:32;;;;;;;6.43;1.63;;;15.40;40.00;;;;;;3576302;40;20043;-63
2021/04/27 11:30:08;;;;;;;7.05;1.48;;;15.40;38.70;;;;;;3573930;40;20053;-63
2021/04/27 11:32:36;;;;;;;4.20;1.17;;;15.30;39.60;;;;;;3570985;40;20107;-64
2021/04/27 11:35:15;;;;;;;2.63;1.30;;;14.50;40.70;;;;;;3574441;40;20535;-64
2021/04/27 11:37:50;;;;;;;1.92;1.20;;;14.70;40.80;;;;;;3571648;40;20037;-63
2021/04/27 11:40:29;;;;;;;4.40;1.10;;;15.10;41.30;;;;;;3575258;40;20033;-63
2021/04/27 11:42:59;;;;;;;5.55;1.98;;;15.90;40.20;;;;;;3576436;40;20044;-64
2021/04/27 11:45:27;;;;;;;7.93;1.63;;;16.40;38.50;;;;;;3577072;40;20074;-64
2021/04/27 11:47:53;;;;;;;3.08;1.10;;;16.50;38.60;;;;;;3572220;39;20034;-64
2021/04/27 11:50:27;;;;;;;9.35;1.30;;;16.30;37.80;;;;;;3574830;40;20429;-64
2021/04/27 11:53:12;;;;;;;2.88;1.10;;;16.20;36.90;;;;;;3577629;40;20595;-64
2021/04/27 11:55:41;;;;;;;2.67;1.13;;;16.30;39.30;;;;;;3574614;40;20049;-65
2021/04/27 11:58:09;;;;;;;8.32;2.25;;;16.40;37.60;;;;;;3576417;40;20052;-64
2021/04/27 12:00:52;;;;;;;1.88;1.05;;;16.20;38.30;;;;;;3572871;40;20403;-64
2021/04/27 12:03:33;;;;;;;2.92;1.30;;;16.00;37.40;;;;;;3571632;40;20439;-64
2021/04/27 12:06:08;;;;;;;5.28;1.20;;;15.80;37.30;;;;;;3571758;40;20392;-63
2021/04/27 12:08:37;;;;;;;5.18;1.30;;;15.70;37.80;;;;;;3580912;40;20040;-64
2021/04/27 12:11:16;;;;;;;1.70;1.00;;;15.80;38.00;;;;;;3570812;40;20146;-64
2021/04/27 12:13:55;;;;;;;1.67;0.93;;;15.40;37.70;;;;;;3575639;40;20825;-64
2021/04/27 12:16:29;;;;;;;2.15;1.20;;;15.20;37.20;;;;;;3575962;40;20049;-64
2021/04/27 12:18:55;;;;;;;4.43;0.88;;;15.10;39.00;;;;;;3576059;40;20032;-62
2021/04/27 12:21:25;;;;;;;4.70;1.20;;;15.60;37.90;;;;;;3577863;40;20040;-62
2021/04/27 12:24:21;;;;;;;4.80;1.30;;;16.00;36.50;;;;;;3576253;40;20125;-62
2021/04/27 12:26:51;;;;;;;3.17;1.27;;;16.00;36.40;;;;;;3576378;40;20051;-62
2021/04/27 12:29:24;;;;;;;1.85;1.25;;;15.10;35.40;;;;;;3569903;40;20037;-62
2021/04/27 12:31:50;;;;;;;2.67;1.27;;;14.70;36.90;;;;;;3574016;40;20033;-62
2021/04/27 12:34:16;;;;;;;1.65;1.20;;;14.80;38.10;;;;;;3575432;39;20176;-62
2021/04/27 12:36:45;;;;;;;4.25;1.27;;;15.20;39.40;;;;;;3574099;40;20475;-62
2021/04/27 12:39:20;;;;;;;4.13;1.40;;;15.40;37.40;;;;;;3574868;40;20051;-64
2021/04/27 12:41:46;;;;;;;3.58;1.38;;;15.20;36.60;;;;;;3577359;40;20044;-66
2021/04/27 12:44:40;;;;;;;3.00;1.55;;;14.60;37.60;;;;;;3575366;40;20130;-66
2021/04/27 12:47:20;;;;;;;2.20;1.30;;;14.70;40.70;;;;;;3576418;40;20856;-66
2021/04/27 12:50:01;;;;;;;4.28;1.25;;;15.50;38.60;;;;;;3574407;40;20045;-66
2021/04/27 12:52:29;;;;;;;3.42;1.30;;;16.10;38.80;;;;;;3577772;40;20044;-66
2021/04/27 12:54:59;;;;;;;3.95;1.17;;;15.60;37.80;;;;;;3577025;40;20064;-66
2021/04/27 12:57:25;;;;;;;1.98;1.23;;;15.70;36.50;;;;;;3575117;40;20131;-66
2021/04/27 13:00:12;;;;;;;3.53;1.15;;;16.10;36.30;;;;;;3575703;40;20173;-66
2021/04/27 13:02:39;;;;;;;5.70;1.33;;;16.20;37.10;;;;;;3574211;40;20037;-66
2021/04/27 13:05:08;;;;;;;6.28;1.52;;;16.30;36.00;;;;;;3574029;40;20037;-66
2021/04/27 13:07:35;;;;;;;3.72;1.17;;;16.20;37.20;;;;;;3573088;39;20068;-66
2021/04/27 13:10:04;;;;;;;2.78;1.30;;;16.20;37.60;;;;;;3571323;40;20030;-66